sensor_id;sensor_type;location;lat;lon;timestamp;temperature;humidity
9776;DHT22;4927;52.472;13.108;2023-07-31T00:00:05;15.30;99.90
9776;DHT22;4927;52.472;13.108;2023-07-31T00:01:07;15.30;99.90
9776;DHT22;4927;52.472;13.108;2023-07-31T00:02:09;15.30;99.90
9776;DHT22;4927;52.472;13.108;2023-07-31T00:03:11;15.30;99.90
9776;DHT22;4927;52.472;13.108;2023-07-31T00:04:13;15.30;99.90
9776;DHT22;4927;52.472;13.108;2023-07-31T00:05:16;15.30;99.90
9776;DHT22;4927;52.472;13.108;2023-07-31T00:06:18;15.30;99.90
9776;DHT22;4927;52.472;13.108;2023-07-31T00:07:26;15.30;99.90
9776;DHT22;4927;52.472;13.108;2023-07-31T00:08:28;15.30;99.90
9776;DHT22;4927;52.472;13.108;2023-07-31T00:09:29;15.30;99.90
9776;DHT22;4927;52.472;13.108;2023-07-31T00:10:31;15.30;99.90
9776;DHT22;4927;52.472;13.108;2023-07-31T00:11:33;15.30;99.90
9776;DHT22;4927;52.472;13.108;2023-07-31T00:12:35;15.30;99.90
9776;DHT22;4927;52.472;13.108;2023-07-31T00:13:36;15.20;99.90
9776;DHT22;4927;52.472;13.108;2023-07-31T00:14:38;15.20;99.90
9776;DHT22;4927;52.472;13.108;2023-07-31T00:15:40;15.20;99.90
9776;DHT22;4927;52.472;13.108;2023-07-31T00:16:43;15.30;99.90
9776;DHT22;4927;52.472;13.108;2023-07-31T00:17:45;15.30;99.90
9776;DHT22;4927;52.472;13.108;2023-07-31T00:18:47;15.30;99.90
9776;DHT22;4927;52.472;13.108;2023-07-31T00:19:48;15.30;99.90
9776;DHT22;4927;52.472;13.108;2023-07-31T00:20:50;15.30;99.90
9776;DHT22;4927;52.472;13.108;2023-07-31T00:21:52;15.30;99.90
9776;DHT22;4927;52.472;13.108;2023-07-31T00:22:54;15.30;99.90
9776;DHT22;4927;52.472;13.108;2023-07-31T00:23:55;15.30;99.90
9776;DHT22;4927;52.472;13.108;2023-07-31T00:25:05;15.30;99.90
9776;DHT22;4927;52.472;13.108;2023-07-31T00:26:06;15.30;99.90
9776;DHT22;4927;52.472;13.108;2023-07-31T00:27:09;15.30;99.90
9776;DHT22;4927;52.472;13.108;2023-07-31T00:28:10;15.30;99.90
9776;DHT22;4927;52.472;13.108;2023-07-31T00:29:12;15.30;99.90
9776;DHT22;4927;52.472;13.108;2023-07-31T00:30:14;15.30;99.90
9776;DHT22;4927;52.472;13.108;2023-07-31T00:31:15;15.30;99.90
9776;DHT22;4927;52.472;13.108;2023-07-31T00:32:17;15.30;99.90
9776;DHT22;4927;52.472;13.108;2023-07-31T00:33:19;15.30;99.90
9776;DHT22;4927;52.472;13.108;2023-07-31T00:34:22;15.30;99.90
9776;DHT22;4927;52.472;13.108;2023-07-31T00:35:23;15.30;99.90
9776;DHT22;4927;52.472;13.108;2023-07-31T00:36:25;15.20;99.90
9776;DHT22;4927;52.472;13.108;2023-07-31T00:37:27;15.30;99.90
9776;DHT22;4927;52.472;13.108;2023-07-31T00:38:28;15.30;99.90
9776;DHT22;4927;52.472;13.108;2023-07-31T00:39:30;15.30;99.90
9776;DHT22;4927;52.472;13.108;2023-07-31T00:40:35;15.30;99.90
9776;DHT22;4927;52.472;13.108;2023-07-31T00:41:37;15.30;99.90
9776;DHT22;4927;52.472;13.108;2023-07-31T00:42:38;15.30;99.90
9776;DHT22;4927;52.472;13.108;2023-07-31T00:43:40;15.30;99.90
9776;DHT22;4927;52.472;13.108;2023-07-31T00:44:41;15.30;99.90
9776;DHT22;4927;52.472;13.108;2023-07-31T00:45:43;15.30;99.90
9776;DHT22;4927;52.472;13.108;2023-07-31T00:46:45;15.30;99.90
9776;DHT22;4927;52.472;13.108;2023-07-31T00:47:46;15.30;99.90
9776;DHT22;4927;52.472;13.108;2023-07-31T00:48:48;15.30;99.90
9776;DHT22;4927;52.472;13.108;2023-07-31T00:49:49;15.30;99.90
9776;DHT22;4927;52.472;13.108;2023-07-31T00:50:51;15.50;99.90
9776;DHT22;4927;52.472;13.108;2023-07-31T00:51:53;15.40;99.90
9776;DHT22;4927;52.472;13.108;2023-07-31T00:52:55;15.30;99.90
9776;DHT22;4927;52.472;13.108;2023-07-31T00:53:57;15.30;99.90
9776;DHT22;4927;52.472;13.108;2023-07-31T00:54:58;15.30;99.90
9776;DHT22;4927;52.472;13.108;2023-07-31T00:56:00;15.30;99.90
9776;DHT22;4927;52.472;13.108;2023-07-31T00:57:02;15.40;99.90
9776;DHT22;4927;52.472;13.108;2023-07-31T00:58:11;15.40;99.90
9776;DHT22;4927;52.472;13.108;2023-07-31T00:59:13;15.40;99.90
9776;DHT22;4927;52.472;13.108;2023-07-31T01:00:15;15.40;99.90
9776;DHT22;4927;52.472;13.108;2023-07-31T01:01:24;15.40;99.90
9776;DHT22;4927;52.472;13.108;2023-07-31T01:02:26;15.40;99.90
9776;DHT22;4927;52.472;13.108;2023-07-31T01:03:29;15.40;99.90
9776;DHT22;4927;52.472;13.108;2023-07-31T01:04:31;15.40;99.90
9776;DHT22;4927;52.472;13.108;2023-07-31T01:06:54;15.40;99.90
9776;DHT22;4927;52.472;13.108;2023-07-31T01:08:12;15.40;99.90
9776;DHT22;4927;52.472;13.108;2023-07-31T01:09:34;15.40;99.90
9776;DHT22;4927;52.472;13.108;2023-07-31T01:10:37;15.40;99.90
9776;DHT22;4927;52.472;13.108;2023-07-31T01:11:39;15.40;99.90
9776;DHT22;4927;52.472;13.108;2023-07-31T01:12:40;15.40;99.90
9776;DHT22;4927;52.472;13.108;2023-07-31T01:13:42;15.40;99.90
9776;DHT22;4927;52.472;13.108;2023-07-31T01:14:51;15.40;99.90
9776;DHT22;4927;52.472;13.108;2023-07-31T01:15:54;15.40;99.90
9776;DHT22;4927;52.472;13.108;2023-07-31T01:16:55;15.40;99.90
9776;DHT22;4927;52.472;13.108;2023-07-31T01:17:57;15.40;99.90
9776;DHT22;4927;52.472;13.108;2023-07-31T01:18:59;15.40;99.90
9776;DHT22;4927;52.472;13.108;2023-07-31T01:20:02;15.50;99.90
9776;DHT22;4927;52.472;13.108;2023-07-31T01:21:08;15.40;99.90
9776;DHT22;4927;52.472;13.108;2023-07-31T01:22:30;15.50;99.90
9776;DHT22;4927;52.472;13.108;2023-07-31T01:27:13;15.50;99.90
9776;DHT22;4927;52.472;13.108;2023-07-31T01:28:16;15.50;99.90
9776;DHT22;4927;52.472;13.108;2023-07-31T01:29:34;15.50;99.90
9776;DHT22;4927;52.472;13.108;2023-07-31T01:30:34;15.50;99.90
9776;DHT22;4927;52.472;13.108;2023-07-31T01:31:35;15.50;99.90
9776;DHT22;4927;52.472;13.108;2023-07-31T01:32:39;15.50;99.90
9776;DHT22;4927;52.472;13.108;2023-07-31T01:33:40;15.50;99.90
9776;DHT22;4927;52.472;13.108;2023-07-31T01:34:42;15.40;99.90
9776;DHT22;4927;52.472;13.108;2023-07-31T01:35:44;15.50;99.90
9776;DHT22;4927;52.472;13.108;2023-07-31T01:36:45;15.50;99.90
9776;DHT22;4927;52.472;13.108;2023-07-31T01:37:47;15.50;99.90
9776;DHT22;4927;52.472;13.108;2023-07-31T01:38:49;15.50;99.90
9776;DHT22;4927;52.472;13.108;2023-07-31T01:39:51;15.50;99.90
9776;DHT22;4927;52.472;13.108;2023-07-31T01:40:52;15.50;99.90
9776;DHT22;4927;52.472;13.108;2023-07-31T01:41:54;15.50;99.90
9776;DHT22;4927;52.472;13.108;2023-07-31T01:42:56;15.50;99.90
9776;DHT22;4927;52.472;13.108;2023-07-31T01:43:58;15.50;99.90
9776;DHT22;4927;52.472;13.108;2023-07-31T01:44:59;15.50;99.90
9776;DHT22;4927;52.472;13.108;2023-07-31T01:46:01;15.50;99.90
9776;DHT22;4927;52.472;13.108;2023-07-31T01:47:03;15.50;99.90
9776;DHT22;4927;52.472;13.108;2023-07-31T01:48:07;15.50;99.90
9776;DHT22;4927;52.472;13.108;2023-07-31T01:49:08;15.50;99.90
9776;DHT22;4927;52.472;13.108;2023-07-31T01:50:11;15.50;99.90
9776;DHT22;4927;52.472;13.108;2023-07-31T01:51:13;15.50;99.90
9776;DHT22;4927;52.472;13.108;2023-07-31T01:52:15;15.50;99.90
9776;DHT22;4927;52.472;13.108;2023-07-31T01:53:17;15.50;99.90
9776;DHT22;4927;52.472;13.108;2023-07-31T01:54:19;15.50;99.90
9776;DHT22;4927;52.472;13.108;2023-07-31T01:55:21;15.50;99.90
9776;DHT22;4927;52.472;13.108;2023-07-31T01:56:23;15.50;99.90
9776;DHT22;4927;52.472;13.108;2023-07-31T01:57:25;15.50;99.90
9776;DHT22;4927;52.472;13.108;2023-07-31T01:58:27;15.50;99.90
9776;DHT22;4927;52.472;13.108;2023-07-31T01:59:29;15.50;99.90
9776;DHT22;4927;52.472;13.108;2023-07-31T02:00:30;15.50;99.90
9776;DHT22;4927;52.472;13.108;2023-07-31T02:01:33;15.50;99.90
9776;DHT22;4927;52.472;13.108;2023-07-31T02:02:35;15.50;99.90
9776;DHT22;4927;52.472;13.108;2023-07-31T02:03:37;15.50;99.90
9776;DHT22;4927;52.472;13.108;2023-07-31T02:04:40;15.50;99.90
9776;DHT22;4927;52.472;13.108;2023-07-31T02:05:44;15.50;99.90
9776;DHT22;4927;52.472;13.108;2023-07-31T02:06:47;15.50;99.90
9776;DHT22;4927;52.472;13.108;2023-07-31T02:07:49;15.50;99.90
9776;DHT22;4927;52.472;13.108;2023-07-31T02:08:51;15.50;99.90
9776;DHT22;4927;52.472;13.108;2023-07-31T02:09:54;15.50;99.90
9776;DHT22;4927;52.472;13.108;2023-07-31T02:10:56;15.50;99.90
9776;DHT22;4927;52.472;13.108;2023-07-31T02:11:58;15.50;99.90
9776;DHT22;4927;52.472;13.108;2023-07-31T02:13:00;15.50;99.90
9776;DHT22;4927;52.472;13.108;2023-07-31T02:14:02;15.50;99.90
9776;DHT22;4927;52.472;13.108;2023-07-31T02:15:05;15.50;99.90
9776;DHT22;4927;52.472;13.108;2023-07-31T02:16:07;15.50;99.90
9776;DHT22;4927;52.472;13.108;2023-07-31T02:17:09;15.50;99.90
9776;DHT22;4927;52.472;13.108;2023-07-31T02:18:11;15.50;99.90
9776;DHT22;4927;52.472;13.108;2023-07-31T02:19:12;15.50;99.90
9776;DHT22;4927;52.472;13.108;2023-07-31T02:20:14;15.50;99.90
9776;DHT22;4927;52.472;13.108;2023-07-31T02:21:16;15.60;99.90
9776;DHT22;4927;52.472;13.108;2023-07-31T02:22:18;15.60;99.90
9776;DHT22;4927;52.472;13.108;2023-07-31T02:23:20;15.60;99.90
9776;DHT22;4927;52.472;13.108;2023-07-31T02:24:22;15.60;99.90
9776;DHT22;4927;52.472;13.108;2023-07-31T02:25:24;15.60;99.90
9776;DHT22;4927;52.472;13.108;2023-07-31T02:26:26;15.60;99.90
9776;DHT22;4927;52.472;13.108;2023-07-31T02:27:29;15.60;99.90
9776;DHT22;4927;52.472;13.108;2023-07-31T02:28:30;15.60;99.90
9776;DHT22;4927;52.472;13.108;2023-07-31T02:29:32;15.60;99.90
9776;DHT22;4927;52.472;13.108;2023-07-31T02:30:34;15.60;99.90
9776;DHT22;4927;52.472;13.108;2023-07-31T02:31:36;15.60;99.90
9776;DHT22;4927;52.472;13.108;2023-07-31T02:32:37;15.60;99.90
9776;DHT22;4927;52.472;13.108;2023-07-31T02:33:40;15.60;99.90
9776;DHT22;4927;52.472;13.108;2023-07-31T02:34:42;15.60;99.90
9776;DHT22;4927;52.472;13.108;2023-07-31T02:35:45;15.60;99.90
9776;DHT22;4927;52.472;13.108;2023-07-31T02:36:47;15.60;99.90
9776;DHT22;4927;52.472;13.108;2023-07-31T02:37:48;15.60;99.90
9776;DHT22;4927;52.472;13.108;2023-07-31T02:38:50;15.60;99.90
9776;DHT22;4927;52.472;13.108;2023-07-31T02:39:53;15.60;99.90
9776;DHT22;4927;52.472;13.108;2023-07-31T02:40:55;15.60;99.90
9776;DHT22;4927;52.472;13.108;2023-07-31T02:41:57;15.60;99.90
9776;DHT22;4927;52.472;13.108;2023-07-31T02:42:59;15.60;99.90
9776;DHT22;4927;52.472;13.108;2023-07-31T02:44:00;15.60;99.90
9776;DHT22;4927;52.472;13.108;2023-07-31T02:45:03;15.60;99.90
9776;DHT22;4927;52.472;13.108;2023-07-31T02:46:06;15.60;99.90
9776;DHT22;4927;52.472;13.108;2023-07-31T02:47:08;15.60;99.90
9776;DHT22;4927;52.472;13.108;2023-07-31T02:48:10;15.60;99.90
9776;DHT22;4927;52.472;13.108;2023-07-31T02:49:12;15.60;99.90
9776;DHT22;4927;52.472;13.108;2023-07-31T02:50:14;15.60;99.90
9776;DHT22;4927;52.472;13.108;2023-07-31T02:51:16;15.60;99.90
9776;DHT22;4927;52.472;13.108;2023-07-31T02:52:18;15.60;99.90
9776;DHT22;4927;52.472;13.108;2023-07-31T02:53:20;15.60;99.90
9776;DHT22;4927;52.472;13.108;2023-07-31T02:54:22;15.60;99.90
9776;DHT22;4927;52.472;13.108;2023-07-31T02:55:24;15.60;99.90
9776;DHT22;4927;52.472;13.108;2023-07-31T02:56:26;15.60;99.90
9776;DHT22;4927;52.472;13.108;2023-07-31T02:57:28;15.60;99.90
9776;DHT22;4927;52.472;13.108;2023-07-31T02:58:30;15.60;99.90
9776;DHT22;4927;52.472;13.108;2023-07-31T02:59:32;15.60;99.90
9776;DHT22;4927;52.472;13.108;2023-07-31T03:00:34;15.50;99.90
9776;DHT22;4927;52.472;13.108;2023-07-31T03:01:36;15.50;99.90
9776;DHT22;4927;52.472;13.108;2023-07-31T03:02:37;15.60;99.90
9776;DHT22;4927;52.472;13.108;2023-07-31T03:03:40;15.50;99.90
9776;DHT22;4927;52.472;13.108;2023-07-31T03:04:41;15.50;99.90
9776;DHT22;4927;52.472;13.108;2023-07-31T03:05:43;15.50;99.90
9776;DHT22;4927;52.472;13.108;2023-07-31T03:06:45;15.50;99.90
9776;DHT22;4927;52.472;13.108;2023-07-31T03:07:47;15.50;99.90
9776;DHT22;4927;52.472;13.108;2023-07-31T03:08:49;15.50;99.90
9776;DHT22;4927;52.472;13.108;2023-07-31T03:09:50;15.50;99.90
9776;DHT22;4927;52.472;13.108;2023-07-31T03:10:53;15.50;99.90
9776;DHT22;4927;52.472;13.108;2023-07-31T03:11:55;15.50;99.90
9776;DHT22;4927;52.472;13.108;2023-07-31T03:12:57;15.50;99.90
9776;DHT22;4927;52.472;13.108;2023-07-31T03:13:59;15.50;99.90
9776;DHT22;4927;52.472;13.108;2023-07-31T03:15:01;15.50;99.90
9776;DHT22;4927;52.472;13.108;2023-07-31T03:16:03;15.50;99.90
9776;DHT22;4927;52.472;13.108;2023-07-31T03:17:05;15.50;99.90
9776;DHT22;4927;52.472;13.108;2023-07-31T03:18:07;15.50;99.90
9776;DHT22;4927;52.472;13.108;2023-07-31T03:19:08;15.50;99.90
9776;DHT22;4927;52.472;13.108;2023-07-31T03:20:11;15.50;99.90
9776;DHT22;4927;52.472;13.108;2023-07-31T03:21:13;15.50;99.90
9776;DHT22;4927;52.472;13.108;2023-07-31T03:22:15;15.50;99.90
9776;DHT22;4927;52.472;13.108;2023-07-31T03:23:17;15.50;99.90
9776;DHT22;4927;52.472;13.108;2023-07-31T03:24:19;15.40;99.90
9776;DHT22;4927;52.472;13.108;2023-07-31T03:25:21;15.40;99.90
9776;DHT22;4927;52.472;13.108;2023-07-31T03:26:23;15.40;99.90
9776;DHT22;4927;52.472;13.108;2023-07-31T03:27:25;15.40;99.90
9776;DHT22;4927;52.472;13.108;2023-07-31T03:28:27;15.40;99.90
9776;DHT22;4927;52.472;13.108;2023-07-31T03:29:29;15.40;99.90
9776;DHT22;4927;52.472;13.108;2023-07-31T03:30:31;15.40;99.90
9776;DHT22;4927;52.472;13.108;2023-07-31T03:31:32;15.40;99.90
9776;DHT22;4927;52.472;13.108;2023-07-31T03:32:34;15.40;99.90
9776;DHT22;4927;52.472;13.108;2023-07-31T03:33:37;15.40;99.90
9776;DHT22;4927;52.472;13.108;2023-07-31T03:34:38;15.40;99.90
9776;DHT22;4927;52.472;13.108;2023-07-31T03:35:40;15.40;99.90
9776;DHT22;4927;52.472;13.108;2023-07-31T03:36:43;15.40;99.90
9776;DHT22;4927;52.472;13.108;2023-07-31T03:37:45;15.40;99.90
9776;DHT22;4927;52.472;13.108;2023-07-31T03:38:47;15.40;99.90
9776;DHT22;4927;52.472;13.108;2023-07-31T03:39:49;15.40;99.90
9776;DHT22;4927;52.472;13.108;2023-07-31T03:40:50;15.40;99.90
9776;DHT22;4927;52.472;13.108;2023-07-31T03:41:53;15.40;99.90
9776;DHT22;4927;52.472;13.108;2023-07-31T03:42:55;15.40;99.90
9776;DHT22;4927;52.472;13.108;2023-07-31T03:43:56;15.40;99.90
9776;DHT22;4927;52.472;13.108;2023-07-31T03:44:59;15.40;99.90
9776;DHT22;4927;52.472;13.108;2023-07-31T03:46:01;15.40;99.90
9776;DHT22;4927;52.472;13.108;2023-07-31T03:47:04;15.40;99.90
9776;DHT22;4927;52.472;13.108;2023-07-31T03:48:06;15.40;99.90
9776;DHT22;4927;52.472;13.108;2023-07-31T03:49:08;15.40;99.90
9776;DHT22;4927;52.472;13.108;2023-07-31T03:50:10;15.40;99.90
9776;DHT22;4927;52.472;13.108;2023-07-31T03:51:11;15.40;99.90
9776;DHT22;4927;52.472;13.108;2023-07-31T03:52:13;15.40;99.90
9776;DHT22;4927;52.472;13.108;2023-07-31T03:53:16;15.40;99.90
9776;DHT22;4927;52.472;13.108;2023-07-31T03:54:17;15.40;99.90
9776;DHT22;4927;52.472;13.108;2023-07-31T03:55:19;15.40;99.90
9776;DHT22;4927;52.472;13.108;2023-07-31T03:56:21;15.40;99.90
9776;DHT22;4927;52.472;13.108;2023-07-31T03:57:23;15.40;99.90
9776;DHT22;4927;52.472;13.108;2023-07-31T03:58:24;15.40;99.90
9776;DHT22;4927;52.472;13.108;2023-07-31T03:59:26;15.40;99.90
9776;DHT22;4927;52.472;13.108;2023-07-31T04:00:28;15.40;99.90
9776;DHT22;4927;52.472;13.108;2023-07-31T04:01:30;15.40;99.90
9776;DHT22;4927;52.472;13.108;2023-07-31T04:02:32;15.40;99.90
9776;DHT22;4927;52.472;13.108;2023-07-31T04:03:34;15.40;99.90
9776;DHT22;4927;52.472;13.108;2023-07-31T04:04:36;15.40;99.90
9776;DHT22;4927;52.472;13.108;2023-07-31T04:05:38;15.40;99.90
9776;DHT22;4927;52.472;13.108;2023-07-31T04:06:40;15.40;99.90
9776;DHT22;4927;52.472;13.108;2023-07-31T04:07:42;15.40;99.90
9776;DHT22;4927;52.472;13.108;2023-07-31T04:08:44;15.40;99.90
9776;DHT22;4927;52.472;13.108;2023-07-31T04:09:46;15.40;99.90
9776;DHT22;4927;52.472;13.108;2023-07-31T04:10:48;15.40;99.90
9776;DHT22;4927;52.472;13.108;2023-07-31T04:11:50;15.40;99.90
9776;DHT22;4927;52.472;13.108;2023-07-31T04:12:53;15.40;99.90
9776;DHT22;4927;52.472;13.108;2023-07-31T04:13:55;15.40;99.90
9776;DHT22;4927;52.472;13.108;2023-07-31T04:14:57;15.40;99.90
9776;DHT22;4927;52.472;13.108;2023-07-31T04:15:59;15.40;99.90
9776;DHT22;4927;52.472;13.108;2023-07-31T04:17:01;15.50;99.90
9776;DHT22;4927;52.472;13.108;2023-07-31T04:18:04;15.40;99.90
9776;DHT22;4927;52.472;13.108;2023-07-31T04:19:05;15.50;99.90
9776;DHT22;4927;52.472;13.108;2023-07-31T04:20:07;15.40;99.90
9776;DHT22;4927;52.472;13.108;2023-07-31T04:21:10;15.50;99.90
9776;DHT22;4927;52.472;13.108;2023-07-31T04:22:12;15.50;99.90
9776;DHT22;4927;52.472;13.108;2023-07-31T04:23:14;15.50;99.90
9776;DHT22;4927;52.472;13.108;2023-07-31T04:24:16;15.50;99.90
9776;DHT22;4927;52.472;13.108;2023-07-31T04:25:18;15.50;99.90
9776;DHT22;4927;52.472;13.108;2023-07-31T04:26:19;15.50;99.90
9776;DHT22;4927;52.472;13.108;2023-07-31T04:27:22;15.50;99.90
9776;DHT22;4927;52.472;13.108;2023-07-31T04:28:24;15.50;99.90
9776;DHT22;4927;52.472;13.108;2023-07-31T04:29:27;15.50;99.90
9776;DHT22;4927;52.472;13.108;2023-07-31T04:30:29;15.50;99.90
9776;DHT22;4927;52.472;13.108;2023-07-31T04:31:33;15.50;99.90
9776;DHT22;4927;52.472;13.108;2023-07-31T04:32:34;15.50;99.90
9776;DHT22;4927;52.472;13.108;2023-07-31T04:33:35;15.50;99.90
9776;DHT22;4927;52.472;13.108;2023-07-31T04:34:37;15.50;99.90
9776;DHT22;4927;52.472;13.108;2023-07-31T04:35:39;15.50;99.90
9776;DHT22;4927;52.472;13.108;2023-07-31T04:36:41;15.50;99.90
9776;DHT22;4927;52.472;13.108;2023-07-31T04:37:43;15.50;99.90
9776;DHT22;4927;52.472;13.108;2023-07-31T04:38:44;15.50;99.90
9776;DHT22;4927;52.472;13.108;2023-07-31T04:39:46;15.50;99.90
9776;DHT22;4927;52.472;13.108;2023-07-31T04:40:48;15.50;99.90
9776;DHT22;4927;52.472;13.108;2023-07-31T04:41:50;15.50;99.90
9776;DHT22;4927;52.472;13.108;2023-07-31T04:42:53;15.50;99.90
9776;DHT22;4927;52.472;13.108;2023-07-31T04:43:55;15.50;99.90
9776;DHT22;4927;52.472;13.108;2023-07-31T04:44:57;15.50;99.90
9776;DHT22;4927;52.472;13.108;2023-07-31T04:45:59;15.50;99.90
9776;DHT22;4927;52.472;13.108;2023-07-31T04:47:01;15.60;99.90
9776;DHT22;4927;52.472;13.108;2023-07-31T04:48:04;15.60;99.90
9776;DHT22;4927;52.472;13.108;2023-07-31T04:49:06;15.60;99.90
9776;DHT22;4927;52.472;13.108;2023-07-31T04:50:09;15.60;99.90
9776;DHT22;4927;52.472;13.108;2023-07-31T04:51:11;15.60;99.90
9776;DHT22;4927;52.472;13.108;2023-07-31T04:52:13;15.60;99.90
9776;DHT22;4927;52.472;13.108;2023-07-31T04:53:14;15.60;99.90
9776;DHT22;4927;52.472;13.108;2023-07-31T04:54:16;15.60;99.90
9776;DHT22;4927;52.472;13.108;2023-07-31T04:55:18;15.60;99.90
9776;DHT22;4927;52.472;13.108;2023-07-31T04:56:20;15.60;99.90
9776;DHT22;4927;52.472;13.108;2023-07-31T04:57:21;15.60;99.90
9776;DHT22;4927;52.472;13.108;2023-07-31T04:58:23;15.60;99.90
9776;DHT22;4927;52.472;13.108;2023-07-31T04:59:25;15.60;99.90
9776;DHT22;4927;52.472;13.108;2023-07-31T05:00:26;15.70;99.90
9776;DHT22;4927;52.472;13.108;2023-07-31T05:01:28;15.70;99.90
9776;DHT22;4927;52.472;13.108;2023-07-31T05:02:31;15.70;99.90
9776;DHT22;4927;52.472;13.108;2023-07-31T05:03:33;15.70;99.90
9776;DHT22;4927;52.472;13.108;2023-07-31T05:04:34;15.70;99.90
9776;DHT22;4927;52.472;13.108;2023-07-31T05:05:37;15.80;99.90
9776;DHT22;4927;52.472;13.108;2023-07-31T05:06:40;15.80;99.90
9776;DHT22;4927;52.472;13.108;2023-07-31T05:07:41;15.70;99.90
9776;DHT22;4927;52.472;13.108;2023-07-31T05:08:43;15.70;99.90
9776;DHT22;4927;52.472;13.108;2023-07-31T05:09:45;15.80;99.90
9776;DHT22;4927;52.472;13.108;2023-07-31T05:10:47;15.80;99.90
9776;DHT22;4927;52.472;13.108;2023-07-31T05:11:49;15.80;99.90
9776;DHT22;4927;52.472;13.108;2023-07-31T05:12:51;15.80;99.90
9776;DHT22;4927;52.472;13.108;2023-07-31T05:13:54;15.90;99.90
9776;DHT22;4927;52.472;13.108;2023-07-31T05:14:56;15.80;99.90
9776;DHT22;4927;52.472;13.108;2023-07-31T05:15:57;15.90;99.90
9776;DHT22;4927;52.472;13.108;2023-07-31T05:16:59;15.90;99.90
9776;DHT22;4927;52.472;13.108;2023-07-31T05:18:01;15.80;99.90
9776;DHT22;4927;52.472;13.108;2023-07-31T05:19:03;15.80;99.90
9776;DHT22;4927;52.472;13.108;2023-07-31T05:20:06;15.90;99.90
9776;DHT22;4927;52.472;13.108;2023-07-31T05:21:09;15.80;99.90
9776;DHT22;4927;52.472;13.108;2023-07-31T05:22:11;15.80;99.90
9776;DHT22;4927;52.472;13.108;2023-07-31T05:23:12;15.80;99.90
9776;DHT22;4927;52.472;13.108;2023-07-31T05:24:14;15.80;99.90
9776;DHT22;4927;52.472;13.108;2023-07-31T05:25:17;15.90;99.90
9776;DHT22;4927;52.472;13.108;2023-07-31T05:26:19;15.90;99.90
9776;DHT22;4927;52.472;13.108;2023-07-31T05:27:22;15.90;99.90
9776;DHT22;4927;52.472;13.108;2023-07-31T05:28:24;15.90;99.90
9776;DHT22;4927;52.472;13.108;2023-07-31T05:29:25;15.90;99.90
9776;DHT22;4927;52.472;13.108;2023-07-31T05:30:29;15.90;99.90
9776;DHT22;4927;52.472;13.108;2023-07-31T05:31:29;15.90;99.90
9776;DHT22;4927;52.472;13.108;2023-07-31T05:32:31;15.90;99.90
9776;DHT22;4927;52.472;13.108;2023-07-31T05:33:33;15.90;99.90
9776;DHT22;4927;52.472;13.108;2023-07-31T05:34:34;15.90;99.90
9776;DHT22;4927;52.472;13.108;2023-07-31T05:35:36;15.90;99.90
9776;DHT22;4927;52.472;13.108;2023-07-31T05:36:38;15.90;99.90
9776;DHT22;4927;52.472;13.108;2023-07-31T05:37:40;15.90;99.90
9776;DHT22;4927;52.472;13.108;2023-07-31T05:38:41;15.90;99.90
9776;DHT22;4927;52.472;13.108;2023-07-31T05:39:43;15.90;99.90
9776;DHT22;4927;52.472;13.108;2023-07-31T05:40:45;15.90;99.90
9776;DHT22;4927;52.472;13.108;2023-07-31T05:41:47;15.90;99.90
9776;DHT22;4927;52.472;13.108;2023-07-31T05:42:48;15.90;99.90
9776;DHT22;4927;52.472;13.108;2023-07-31T05:43:51;15.90;99.90
9776;DHT22;4927;52.472;13.108;2023-07-31T05:44:53;15.90;99.90
9776;DHT22;4927;52.472;13.108;2023-07-31T05:45:54;15.90;99.90
9776;DHT22;4927;52.472;13.108;2023-07-31T05:46:56;16.00;99.90
9776;DHT22;4927;52.472;13.108;2023-07-31T05:47:58;15.90;99.90
9776;DHT22;4927;52.472;13.108;2023-07-31T05:49:00;16.00;99.90
9776;DHT22;4927;52.472;13.108;2023-07-31T05:50:02;15.90;99.90
9776;DHT22;4927;52.472;13.108;2023-07-31T05:51:05;16.00;99.90
9776;DHT22;4927;52.472;13.108;2023-07-31T05:52:07;16.00;99.90
9776;DHT22;4927;52.472;13.108;2023-07-31T05:53:09;16.00;99.90
9776;DHT22;4927;52.472;13.108;2023-07-31T05:54:10;16.00;99.90
9776;DHT22;4927;52.472;13.108;2023-07-31T05:55:12;16.00;99.90
9776;DHT22;4927;52.472;13.108;2023-07-31T05:56:14;15.90;99.90
9776;DHT22;4927;52.472;13.108;2023-07-31T05:57:16;16.00;99.90
9776;DHT22;4927;52.472;13.108;2023-07-31T05:58:19;16.00;99.90
9776;DHT22;4927;52.472;13.108;2023-07-31T05:59:21;16.00;99.90
9776;DHT22;4927;52.472;13.108;2023-07-31T06:00:23;16.00;99.90
9776;DHT22;4927;52.472;13.108;2023-07-31T06:01:24;16.00;99.90
9776;DHT22;4927;52.472;13.108;2023-07-31T06:02:26;16.00;99.90
9776;DHT22;4927;52.472;13.108;2023-07-31T06:03:28;16.00;99.90
9776;DHT22;4927;52.472;13.108;2023-07-31T06:04:30;16.00;99.90
9776;DHT22;4927;52.472;13.108;2023-07-31T06:05:31;16.00;99.90
9776;DHT22;4927;52.472;13.108;2023-07-31T06:06:33;16.00;99.90
9776;DHT22;4927;52.472;13.108;2023-07-31T06:07:35;16.00;99.90
9776;DHT22;4927;52.472;13.108;2023-07-31T06:08:37;16.00;99.90
9776;DHT22;4927;52.472;13.108;2023-07-31T06:09:39;16.00;99.90
9776;DHT22;4927;52.472;13.108;2023-07-31T06:10:41;16.10;99.90
9776;DHT22;4927;52.472;13.108;2023-07-31T06:11:43;16.10;99.90
9776;DHT22;4927;52.472;13.108;2023-07-31T06:12:45;16.10;99.90
9776;DHT22;4927;52.472;13.108;2023-07-31T06:13:47;16.10;99.90
9776;DHT22;4927;52.472;13.108;2023-07-31T06:14:49;16.10;99.90
9776;DHT22;4927;52.472;13.108;2023-07-31T06:15:52;16.10;99.90
9776;DHT22;4927;52.472;13.108;2023-07-31T06:16:53;16.10;99.90
9776;DHT22;4927;52.472;13.108;2023-07-31T06:17:55;16.20;99.90
9776;DHT22;4927;52.472;13.108;2023-07-31T06:18:58;16.20;99.90
9776;DHT22;4927;52.472;13.108;2023-07-31T06:20:00;16.20;99.90
9776;DHT22;4927;52.472;13.108;2023-07-31T06:21:02;16.20;99.90
9776;DHT22;4927;52.472;13.108;2023-07-31T06:22:04;16.20;99.90
9776;DHT22;4927;52.472;13.108;2023-07-31T06:23:07;16.20;99.90
9776;DHT22;4927;52.472;13.108;2023-07-31T06:24:09;16.30;99.90
9776;DHT22;4927;52.472;13.108;2023-07-31T06:25:11;16.30;99.90
9776;DHT22;4927;52.472;13.108;2023-07-31T06:26:13;16.30;99.90
9776;DHT22;4927;52.472;13.108;2023-07-31T06:27:15;16.40;99.90
9776;DHT22;4927;52.472;13.108;2023-07-31T06:28:17;16.40;99.90
9776;DHT22;4927;52.472;13.108;2023-07-31T06:29:19;16.40;99.90
9776;DHT22;4927;52.472;13.108;2023-07-31T06:30:21;16.40;99.90
9776;DHT22;4927;52.472;13.108;2023-07-31T06:31:23;16.50;99.90
9776;DHT22;4927;52.472;13.108;2023-07-31T06:32:25;16.50;99.90
9776;DHT22;4927;52.472;13.108;2023-07-31T06:33:27;16.60;99.90
9776;DHT22;4927;52.472;13.108;2023-07-31T06:34:29;16.60;99.90
9776;DHT22;4927;52.472;13.108;2023-07-31T06:35:31;16.60;99.90
9776;DHT22;4927;52.472;13.108;2023-07-31T06:36:34;16.70;99.90
9776;DHT22;4927;52.472;13.108;2023-07-31T06:37:36;16.60;99.90
9776;DHT22;4927;52.472;13.108;2023-07-31T06:38:37;16.60;99.90
9776;DHT22;4927;52.472;13.108;2023-07-31T06:39:40;16.70;99.90
9776;DHT22;4927;52.472;13.108;2023-07-31T06:40:43;16.70;99.90
9776;DHT22;4927;52.472;13.108;2023-07-31T06:41:45;16.70;99.90
9776;DHT22;4927;52.472;13.108;2023-07-31T06:42:47;16.70;99.90
9776;DHT22;4927;52.472;13.108;2023-07-31T06:43:50;16.70;99.90